Time;durP1;ratioP1;P1;durP2;ratioP2;P2;SDS_P1;SDS_P2;PMS_P1;PMS_P2;Temp;Humidity;BMP_temperature;BMP_pressure;BME280_temperature;BME280_humidity;BME280_pressure;Samples;Min_cycle;Max_cycle;Signal;HPM_P1;HPM_P2
2023/08/19 00:00:15;;;;;;;8.25;2.42;;;;;;;23.64;43.22;94038.56;5022340;28;20079;-79
2023/08/19 00:02:44;;;;;;;11.40;2.20;;;;;;;23.56;43.41;94034.31;5023506;28;20025;-80
2023/08/19 00:05:10;;;;;;;6.28;1.83;;;;;;;23.48;43.60;94030.03;5022252;28;20026;-80
2023/08/19 00:07:36;;;;;;;4.68;2.10;;;;;;;23.47;43.56;94026.56;5023394;28;20040;-80
2023/08/19 00:10:05;;;;;;;6.65;3.17;;;;;;;23.42;43.77;94033.16;5023189;28;20030;-79
2023/08/19 00:12:31;;;;;;;11.68;2.92;;;;;;;23.42;43.79;94032.38;5023143;28;20033;-80
2023/08/19 00:14:57;;;;;;;8.68;2.28;;;;;;;23.37;43.70;94025.41;5023509;28;20037;-80
2023/08/19 00:17:23;;;;;;;10.13;2.00;;;;;;;23.40;43.74;94023.84;5022339;28;20076;-80
2023/08/19 00:19:49;;;;;;;10.27;2.25;;;;;;;23.37;43.64;94025.41;5022325;28;20378;-80
2023/08/19 00:22:14;;;;;;;3.20;1.77;;;;;;;23.36;43.86;94032.00;5023174;28;20033;-79
2023/08/19 00:24:39;;;;;;;8.20;2.05;;;;;;;23.32;43.95;94028.50;5023139;28;20032;-79
2023/08/19 00:27:05;;;;;;;7.40;1.85;;;;;;;23.28;44.12;94027.72;5023189;28;20049;-80
2023/08/19 00:29:30;;;;;;;8.68;1.95;;;;;;;23.27;44.22;94023.47;5023334;28;20312;-80
2023/08/19 00:31:56;;;;;;;11.73;2.15;;;;;;;23.27;44.34;94017.25;5022959;28;20060;-79
2023/08/19 00:34:21;;;;;;;5.50;2.40;;;;;;;23.21;44.35;94023.06;5023311;28;20093;-80
2023/08/19 00:36:48;;;;;;;5.25;2.00;;;;;;;23.21;44.34;94006.75;5023009;28;20030;-80
2023/08/19 00:39:13;;;;;;;9.98;2.17;;;;;;;23.15;44.39;94007.56;5021891;28;20191;-80
2023/08/19 00:41:39;;;;;;;6.43;2.20;;;;;;;23.14;44.31;94000.53;5023263;28;20041;-80
2023/08/19 00:44:04;;;;;;;7.35;3.25;;;;;;;23.16;44.61;93998.22;5023051;28;20193;-80
2023/08/19 00:46:30;;;;;;;4.80;3.08;;;;;;;23.15;44.46;93999.41;5021700;28;20220;-80
2023/08/19 00:48:57;;;;;;;5.88;2.25;;;;;;;23.18;44.21;94001.31;5022820;28;20025;-80
2023/08/19 00:51:23;;;;;;;5.13;2.15;;;;;;;23.14;44.17;93995.91;5021945;28;20029;-80
2023/08/19 00:53:49;;;;;;;3.47;1.63;;;;;;;23.15;44.45;93991.25;5021874;28;20022;-79
2023/08/19 00:56:15;;;;;;;4.13;2.15;;;;;;;23.17;44.38;94000.56;5022722;28;20021;-80
2023/08/19 00:58:41;;;;;;;8.85;2.33;;;;;;;23.18;44.25;93990.44;5022907;28;20041;-80
2023/08/19 01:01:08;;;;;;;7.07;2.40;;;;;;;23.18;44.32;93987.72;5022722;28;20032;-80
2023/08/19 01:03:34;;;;;;;7.05;1.75;;;;;;;23.17;44.22;93988.91;5022682;28;20092;-80
2023/08/19 01:06:24;;;;;;;8.25;2.10;;;;;;;23.12;44.42;93986.56;5022688;28;20034;-80
2023/08/19 01:08:59;;;;;;;6.90;2.78;;;;;;;23.10;44.49;93994.34;5022814;28;20053;-80
2023/08/19 01:11:51;;;;;;;5.93;2.78;;;;;;;23.04;44.36;94002.13;5022638;28;20061;-80
2023/08/19 01:14:46;;;;;;;3.88;2.45;;;;;;;23.00;44.74;94002.09;5022383;28;20033;-80
2023/08/19 01:17:14;;;;;;;10.75;2.05;;;;;;;23.00;44.38;94006.75;5021444;28;20343;-80
2023/08/19 01:20:09;;;;;;;5.55;2.40;;;;;;;23.03;43.98;94012.19;5022109;28;20029;-80
2023/08/19 01:22:55;;;;;;;3.25;1.88;;;;;;;23.03;44.32;94011.44;5022049;28;20088;-80
2023/08/19 01:25:21;;;;;;;7.70;2.25;;;;;;;22.95;45.15;94016.06;5024789;28;20062;-80
2023/08/19 01:27:50;;;;;;;6.70;2.40;;;;;;;22.92;45.22;94018.75;5024963;28;20318;-80
2023/08/19 01:30:15;;;;;;;8.38;2.38;;;;;;;22.91;45.42;94014.50;5026076;28;20021;-80
2023/08/19 01:32:43;;;;;;;8.57;2.42;;;;;;;22.89;45.13;94022.28;5025209;28;20029;-79
2023/08/19 01:35:10;;;;;;;4.82;2.10;;;;;;;22.86;45.59;94021.13;5026285;28;20036;-80
2023/08/19 01:37:41;;;;;;;7.25;2.40;;;;;;;22.79;45.94;94018.38;5025043;28;20029;-80
2023/08/19 01:40:10;;;;;;;7.45;2.33;;;;;;;22.74;46.49;94005.19;5026191;28;20052;-80
2023/08/19 01:42:37;;;;;;;5.25;2.08;;;;;;;22.68;46.58;94004.78;5026271;28;20090;-80
2023/08/19 01:45:08;;;;;;;6.38;2.25;;;;;;;22.63;46.87;94000.53;5026104;28;20036;-79
2023/08/19 01:47:40;;;;;;;9.55;2.45;;;;;;;22.59;46.90;94007.91;5026011;28;20065;-80
2023/08/19 01:50:07;;;;;;;5.53;2.10;;;;;;;22.55;47.09;93995.44;5025875;28;20029;-80
2023/08/19 01:52:33;;;;;;;4.53;2.10;;;;;;;22.51;47.08;93992.75;5024478;28;20087;-80
2023/08/19 01:54:59;;;;;;;11.10;2.20;;;;;;;22.46;47.00;93990.41;5025938;28;20021;-80
2023/08/19 01:57:26;;;;;;;8.70;2.50;;;;;;;22.46;47.40;93984.19;5025967;28;20029;-80
2023/08/19 01:59:52;;;;;;;5.05;2.95;;;;;;;22.44;47.60;93984.56;5026046;28;20237;-80
2023/08/19 02:02:18;;;;;;;6.07;2.70;;;;;;;22.38;47.83;93988.84;5025738;28;20314;-79
2023/08/19 02:04:43;;;;;;;8.38;2.60;;;;;;;22.34;47.92;93998.91;5025480;28;20120;-80
2023/08/19 02:07:09;;;;;;;4.88;2.17;;;;;;;22.26;47.86;93989.97;5025624;28;20022;-80
2023/08/19 02:09:34;;;;;;;7.22;2.05;;;;;;;22.28;47.02;93984.16;5025627;28;20026;-80
2023/08/19 02:12:00;;;;;;;6.30;2.38;;;;;;;22.27;46.59;93993.44;5025488;28;20049;-80
2023/08/19 02:14:25;;;;;;;4.45;2.22;;;;;;;22.24;45.87;93990.34;5025476;28;20022;-80
2023/08/19 02:16:51;;;;;;;7.90;2.30;;;;;;;22.22;46.41;93989.91;5025627;28;20022;-80
2023/08/19 02:19:16;;;;;;;9.15;3.08;;;;;;;22.19;47.69;93989.94;5025307;28;20022;-80
2023/08/19 02:21:42;;;;;;;9.98;2.58;;;;;;;22.14;47.82;93996.50;5025461;28;20013;-80
2023/08/19 02:24:07;;;;;;;3.50;2.20;;;;;;;22.12;48.04;93998.81;5025469;28;20089;-80
2023/08/19 02:26:33;;;;;;;4.13;2.38;;;;;;;22.08;47.95;93998.03;5025381;28;20025;-80
2023/08/19 02:28:58;;;;;;;4.35;2.13;;;;;;;22.08;48.38;93992.59;5025312;28;20196;-80
2023/08/19 02:31:26;;;;;;;4.47;2.30;;;;;;;22.03;48.58;93988.31;5024966;28;20327;-79
2023/08/19 02:33:51;;;;;;;8.20;3.03;;;;;;;21.99;48.81;94005.75;5025302;28;20021;-80
2023/08/19 02:36:17;;;;;;;4.07;2.22;;;;;;;21.90;49.41;93999.91;5025094;28;20308;-82
2023/08/19 02:38:42;;;;;;;7.82;2.70;;;;;;;21.86;49.64;93994.47;5025102;28;20272;-80
2023/08/19 02:41:08;;;;;;;4.47;2.33;;;;;;;21.85;49.72;94006.47;5025007;28;20060;-80
2023/08/19 02:43:33;;;;;;;6.53;2.40;;;;;;;21.76;49.93;94004.13;5023736;28;20057;-82
2023/08/19 02:45:59;;;;;;;7.30;2.53;;;;;;;21.73;50.08;94001.38;5024907;28;20025;-80
2023/08/19 02:48:24;;;;;;;9.10;2.78;;;;;;;21.71;49.57;94009.88;5024948;28;20018;-80
2023/08/19 02:50:56;;;;;;;8.85;2.55;;;;;;;21.67;50.17;94011.81;5023635;28;20041;-80
2023/08/19 02:53:22;;;;;;;6.82;2.97;;;;;;;21.65;50.51;94014.13;5025209;28;20212;-80
2023/08/19 02:55:51;;;;;;;4.75;2.70;;;;;;;21.60;50.64;94015.25;5024673;28;20018;-80
2023/08/19 02:58:16;;;;;;;8.23;2.70;;;;;;;21.56;51.30;94006.34;5024794;28;20255;-79
2023/08/19 03:00:42;;;;;;;7.68;2.95;;;;;;;21.54;51.48;94013.31;5024608;28;20014;-79
2023/08/19 03:03:08;;;;;;;7.43;2.85;;;;;;;21.47;51.68;94014.00;5024563;28;20025;-80
2023/08/19 03:05:37;;;;;;;5.85;3.15;;;;;;;21.43;51.55;94008.59;5024551;28;20025;-80
2023/08/19 03:08:04;;;;;;;6.43;2.25;;;;;;;21.40;51.64;94011.25;5024562;28;20044;-80
2023/08/19 03:10:35;;;;;;;9.60;3.13;;;;;;;21.36;51.78;94008.50;5024315;28;20386;-80
2023/08/19 03:13:01;;;;;;;4.05;2.45;;;;;;;21.35;51.83;94006.97;5024458;28;20068;-80
2023/08/19 03:15:26;;;;;;;10.88;3.60;;;;;;;21.35;51.61;94014.31;5024316;28;20025;-79
2023/08/19 03:17:52;;;;;;;7.57;2.90;;;;;;;21.32;51.78;94020.50;5024353;28;20037;-79
2023/08/19 03:20:18;;;;;;;14.25;3.05;;;;;;;21.26;52.04;94011.94;5024336;28;20018;-80
2023/08/19 03:22:43;;;;;;;8.32;2.80;;;;;;;21.24;52.17;94011.53;5024285;28;20339;-79
2023/08/19 03:25:10;;;;;;;10.25;2.63;;;;;;;21.24;51.89;94011.53;5024199;28;20049;-80
2023/08/19 03:27:36;;;;;;;5.15;2.75;;;;;;;21.19;51.79;94017.31;5024177;28;20383;-80
2023/08/19 03:30:01;;;;;;;5.32;2.83;;;;;;;21.10;51.64;94022.28;5023729;28;20037;-82
2023/08/19 03:32:27;;;;;;;8.65;2.05;;;;;;;21.11;51.75;94018.41;5022943;28;20063;-80
2023/08/19 03:34:53;;;;;;;4.38;2.55;;;;;;;21.13;51.94;94029.66;5024217;28;20025;-80
2023/08/19 03:37:18;;;;;;;7.90;2.92;;;;;;;21.11;51.86;94021.13;5024192;28;20335;-80
2023/08/19 03:39:44;;;;;;;7.13;3.03;;;;;;;21.09;52.54;94018.78;5023973;28;20049;-81
2023/08/19 03:42:09;;;;;;;9.35;2.80;;;;;;;21.08;52.13;94008.31;5022647;28;20094;-80
2023/08/19 03:44:35;;;;;;;9.10;2.55;;;;;;;21.04;52.88;94013.69;5023795;28;20018;-80
2023/08/19 03:47:00;;;;;;;7.25;2.85;;;;;;;20.99;53.00;94014.06;5023428;28;20021;-80
2023/08/19 03:49:25;;;;;;;5.28;2.90;;;;;;;20.94;52.80;94012.47;5023834;28;20021;-80
2023/08/19 03:51:51;;;;;;;8.52;3.03;;;;;;;20.91;52.93;94010.50;5022623;28;20097;-80
2023/08/19 03:54:16;;;;;;;6.13;2.72;;;;;;;20.90;52.50;94008.94;5023769;28;20097;-80
2023/08/19 03:56:42;;;;;;;10.02;2.85;;;;;;;20.94;52.47;94014.41;5023556;28;20117;-80
2023/08/19 03:59:07;;;;;;;7.72;2.75;;;;;;;20.97;51.82;94000.88;5023610;28;20029;-80
2023/08/19 04:01:33;;;;;;;13.18;3.88;;;;;;;21.00;51.71;94013.69;5023413;28;20042;-80
2023/08/19 04:03:58;;;;;;;13.00;3.83;;;;;;;21.06;51.23;94005.19;5023589;28;20029;-79
2023/08/19 04:06:24;;;;;;;6.13;3.10;;;;;;;21.07;51.18;94001.34;5023556;28;20022;-80
2023/08/19 04:08:49;;;;;;;10.25;3.30;;;;;;;21.09;51.42;94005.25;5023490;28;20026;-82
2023/08/19 04:11:15;;;;;;;4.10;2.60;;;;;;;21.13;51.64;94008.75;5023333;28;20057;-79
2023/08/19 04:13:40;;;;;;;11.82;3.38;;;;;;;21.16;51.30;94018.81;5023282;28;20319;-79
2023/08/19 04:16:07;;;;;;;12.50;3.15;;;;;;;21.20;51.60;94014.22;5023267;28;20022;-79
2023/08/19 04:18:34;;;;;;;5.20;2.58;;;;;;;21.23;51.14;94013.47;5023288;28;20370;-79
2023/08/19 04:21:06;;;;;;;10.38;3.30;;;;;;;21.17;51.37;94014.97;5023191;28;20010;-80
2023/08/19 04:23:33;;;;;;;12.60;3.72;;;;;;;21.22;51.29;94022.75;5022082;28;20045;-79
2023/08/19 04:25:58;;;;;;;9.32;2.88;;;;;;;21.28;50.99;94023.16;5022908;28;20339;-79
2023/08/19 04:28:25;;;;;;;7.43;2.28;;;;;;;21.34;50.91;94029.03;5023138;28;20040;-79
2023/08/19 04:30:50;;;;;;;12.18;2.88;;;;;;;21.34;50.82;94026.31;5023257;28;20309;-80
2023/08/19 04:33:16;;;;;;;11.65;3.60;;;;;;;21.34;51.33;94040.63;5022940;28;20060;-79
2023/08/19 04:35:42;;;;;;;17.77;4.63;;;;;;;21.40;50.91;94041.84;5023026;28;20232;-80
2023/08/19 04:38:07;;;;;;;38.33;3.88;;;;;;;21.43;50.24;94041.13;5023043;28;20025;-79
2023/08/19 04:40:33;;;;;;;7.82;3.10;;;;;;;21.48;50.34;94041.94;5023110;28;20018;-79
2023/08/19 04:42:58;;;;;;;5.95;2.60;;;;;;;21.53;50.14;94049.69;5022913;28;20060;-79
2023/08/19 04:45:24;;;;;;;5.80;2.70;;;;;;;21.56;49.63;94051.66;5022860;28;20022;-80
2023/08/19 04:47:50;;;;;;;6.50;2.92;;;;;;;21.64;49.93;94055.97;5023049;28;20028;-79
2023/08/19 04:50:16;;;;;;;8.70;2.53;;;;;;;21.72;49.53;94063.00;5022934;28;20030;-80
2023/08/19 04:52:41;;;;;;;7.75;2.67;;;;;;;21.75;49.71;94062.22;5022988;28;20060;-79
2023/08/19 04:55:07;;;;;;;7.40;2.50;;;;;;;21.80;49.62;94061.13;5021760;28;20041;-79
2023/08/19 04:57:33;;;;;;;8.82;3.20;;;;;;;21.89;48.96;94053.38;5023097;28;20022;-80
2023/08/19 04:59:58;;;;;;;8.82;2.80;;;;;;;21.95;49.00;94048.38;5026805;28;20048;-79
2023/08/19 05:02:24;;;;;;;9.35;3.30;;;;;;;22.03;49.13;94063.53;5025820;28;20018;-79
2023/08/19 05:04:49;;;;;;;11.68;3.30;;;;;;;22.04;49.38;94065.09;5027024;28;20022;-79
2023/08/19 05:07:15;;;;;;;8.88;2.60;;;;;;;22.13;49.69;94070.94;5026827;28;20022;-80
2023/08/19 05:09:40;;;;;;;8.55;3.40;;;;;;;22.19;49.64;94058.56;5026726;28;20025;-79
2023/08/19 05:12:06;;;;;;;7.57;2.78;;;;;;;22.30;49.77;94063.28;5026400;28;20105;-79
2023/08/19 05:14:32;;;;;;;13.45;3.17;;;;;;;22.33;49.63;94067.97;5025514;28;20029;-79
2023/08/19 05:16:57;;;;;;;13.75;2.85;;;;;;;22.38;49.44;94070.28;5026654;28;20076;-79
2023/08/19 05:19:24;;;;;;;7.35;2.60;;;;;;;22.44;49.33;94061.38;5026823;28;20288;-79
2023/08/19 05:21:50;;;;;;;13.65;3.08;;;;;;;22.52;48.94;94064.13;5026674;28;20044;-80
2023/08/19 05:24:16;;;;;;;8.88;2.80;;;;;;;22.56;49.17;94059.50;5025320;28;20324;-80
2023/08/19 05:26:44;;;;;;;9.15;2.92;;;;;;;22.61;48.89;94072.69;5026377;28;20026;-79
2023/08/19 05:29:10;;;;;;;12.57;3.03;;;;;;;22.63;48.88;94064.91;5025302;28;20053;-80
2023/08/19 05:31:36;;;;;;;5.85;2.88;;;;;;;22.72;49.07;94070.00;5025197;28;20056;-80
2023/08/19 05:34:01;;;;;;;8.50;2.90;;;;;;;22.79;48.80;94061.84;5026123;28;20033;-80
2023/08/19 05:36:27;;;;;;;12.70;2.90;;;;;;;22.86;48.46;94067.31;5026306;28;20096;-79
2023/08/19 05:38:53;;;;;;;16.60;3.25;;;;;;;22.90;48.51;94054.50;5025300;28;20323;-79
2023/08/19 05:41:18;;;;;;;7.85;3.10;;;;;;;22.93;48.47;94056.44;5026165;28;20073;-80
2023/08/19 05:43:44;;;;;;;11.07;2.58;;;;;;;23.00;47.90;94055.69;5025041;28;20057;-79
2023/08/19 05:46:09;;;;;;;9.50;4.18;;;;;;;23.06;47.28;94054.16;5026118;28;20077;-79
2023/08/19 05:48:35;;;;;;;5.38;2.40;;;;;;;23.12;45.35;94057.25;5026163;28;20021;-79
2023/08/19 05:51:01;;;;;;;10.27;3.00;;;;;;;23.24;45.43;94051.41;5025833;28;20312;-79
2023/08/19 05:53:26;;;;;;;20.08;2.75;;;;;;;23.30;44.86;94044.44;5026013;28;20022;-80
2023/08/19 05:55:52;;;;;;;24.33;3.15;;;;;;;23.41;43.88;94042.47;5026059;28;20370;-79
2023/08/19 05:58:18;;;;;;;6.60;2.50;;;;;;;23.51;44.37;94042.84;5025708;28;20029;-79
2023/08/19 06:00:43;;;;;;;5.63;2.33;;;;;;;23.59;43.90;94052.53;5026033;28;20044;-80
2023/08/19 06:03:09;;;;;;;4.47;2.50;;;;;;;23.68;43.21;94052.94;5025772;28;20092;-80
2023/08/19 06:05:35;;;;;;;10.82;2.35;;;;;;;23.78;42.60;94049.44;5025622;28;20022;-79
2023/08/19 06:08:01;;;;;;;9.27;2.28;;;;;;;23.83;43.08;94053.69;5025471;28;20025;-79
2023/08/19 06:10:26;;;;;;;11.15;3.22;;;;;;;23.92;42.91;94047.88;5024862;28;20044;-79
2023/08/19 06:12:52;;;;;;;6.10;2.95;;;;;;;24.00;43.27;94060.28;5024634;28;20034;-79
2023/08/19 06:15:17;;;;;;;8.85;2.75;;;;;;;24.06;42.86;94064.16;5025695;28;20029;-79
2023/08/19 06:17:43;;;;;;;5.20;2.40;;;;;;;24.09;42.74;94066.06;5025481;28;20057;-79
2023/08/19 06:20:09;;;;;;;8.15;2.55;;;;;;;24.17;43.14;94067.59;5025361;28;20065;-79
2023/08/19 06:22:34;;;;;;;9.68;2.42;;;;;;;24.20;43.40;94074.19;5025200;28;20049;-80
2023/08/19 06:25:00;;;;;;;8.68;2.58;;;;;;;24.27;43.20;94068.72;5025350;28;20025;-80
2023/08/19 06:27:25;;;;;;;4.90;2.15;;;;;;;24.29;40.99;94065.63;5025469;28;20350;-79
2023/08/19 06:29:52;;;;;;;9.85;2.33;;;;;;;24.33;39.62;94078.03;5025314;28;20097;-80
2023/08/19 06:32:17;;;;;;;5.85;2.20;;;;;;;24.40;39.83;94082.69;5025415;28;20029;-80
2023/08/19 06:34:43;;;;;;;4.30;2.28;;;;;;;24.43;39.42;94071.00;5025093;28;20252;-80
2023/08/19 06:37:11;;;;;;;7.18;2.50;;;;;;;24.51;39.37;94079.94;5025153;28;20026;-80
2023/08/19 06:39:38;;;;;;;12.32;2.88;;;;;;;24.57;38.72;94083.81;5025043;28;20026;-80
2023/08/19 06:42:05;;;;;;;6.07;1.92;;;;;;;24.58;40.06;94088.84;5025164;28;20026;-80
2023/08/19 06:44:32;;;;;;;11.63;2.90;;;;;;;24.64;39.56;94086.50;5024988;28;20201;-80
2023/08/19 06:47:00;;;;;;;5.82;2.40;;;;;;;24.71;38.89;94082.94;5024715;28;20069;-80
2023/08/19 06:49:26;;;;;;;10.20;2.30;;;;;;;24.71;38.92;94083.75;5025056;28;20026;-80
2023/08/19 06:51:52;;;;;;;7.93;2.58;;;;;;;24.67;38.42;94079.47;5024983;28;20053;-80
2023/08/19 06:54:18;;;;;;;9.73;2.55;;;;;;;24.75;38.58;94097.31;5024641;28;20026;-80
2023/08/19 06:57:09;;;;;;;8.50;2.10;;;;;;;24.82;37.81;94083.66;5023472;28;20056;-80
2023/08/19 06:59:39;;;;;;;6.70;2.63;;;;;;;24.88;38.49;94082.06;5023626;28;20025;-80
2023/08/19 07:02:07;;;;;;;5.25;2.58;;;;;;;24.92;38.02;94080.09;5024782;28;20021;-80
2023/08/19 07:04:34;;;;;;;4.10;2.40;;;;;;;24.98;37.28;94072.28;5024467;28;20025;-80
2023/08/19 07:07:04;;;;;;;5.57;2.35;;;;;;;25.05;37.58;94074.19;5024419;28;20060;-80
2023/08/19 07:09:30;;;;;;;3.17;1.80;;;;;;;25.05;37.38;94071.44;5024440;28;20351;-80
2023/08/19 07:11:57;;;;;;;12.65;2.15;;;;;;;25.11;36.32;94075.28;5024294;28;20101;-80
2023/08/19 07:14:24;;;;;;;7.40;2.42;;;;;;;25.19;37.01;94095.88;5024492;28;20068;-80
2023/08/19 07:16:51;;;;;;;5.60;2.30;;;;;;;25.27;37.28;94089.22;5024526;28;20228;-80
2023/08/19 07:19:23;;;;;;;5.43;2.63;;;;;;;25.31;35.61;94081.78;5024342;28;20033;-80
2023/08/19 07:21:48;;;;;;;7.00;2.37;;;;;;;25.35;35.25;94082.53;5023654;28;20144;-80
2023/08/19 07:24:15;;;;;;;9.93;2.17;;;;;;;25.41;35.31;94091.06;5024207;28;20590;-80
2023/08/19 07:26:42;;;;;;;7.70;2.70;;;;;;;25.48;34.53;94082.06;5024429;28;20017;-79
2023/08/19 07:29:08;;;;;;;5.38;2.53;;;;;;;25.52;35.22;94082.78;5024094;28;20018;-79
2023/08/19 07:31:33;;;;;;;6.47;2.22;;;;;;;25.58;34.90;94087.41;5023959;28;20250;-79
2023/08/19 07:33:59;;;;;;;8.30;1.50;;;;;;;25.60;34.69;94087.81;5024119;28;20052;-80
2023/08/19 07:36:26;;;;;;;14.13;2.45;;;;;;;25.62;34.66;94090.09;5023925;28;20025;-80
2023/08/19 07:38:52;;;;;;;4.35;1.90;;;;;;;25.65;33.81;94089.31;5024251;28;20092;-80
2023/08/19 07:41:19;;;;;;;3.38;2.03;;;;;;;25.68;33.57;94077.56;5024023;28;20044;-80
2023/08/19 07:43:44;;;;;;;8.73;2.20;;;;;;;25.73;34.08;94095.50;5023960;28;20104;-79
2023/08/19 07:46:10;;;;;;;4.10;1.63;;;;;;;25.77;33.52;94083.34;5023856;28;20017;-79
2023/08/19 07:48:35;;;;;;;3.60;1.73;;;;;;;25.78;33.28;94090.34;5023602;28;20190;-79
2023/08/19 07:51:01;;;;;;;4.05;1.67;;;;;;;25.88;33.73;94087.94;5022542;28;20025;-79
2023/08/19 07:53:27;;;;;;;4.00;1.63;;;;;;;25.96;33.49;94089.44;5023712;28;20243;-80
2023/08/19 07:55:52;;;;;;;6.72;1.92;;;;;;;25.97;34.00;94086.31;5023961;28;20022;-79
2023/08/19 07:58:17;;;;;;;6.10;1.75;;;;;;;26.02;34.01;94076.88;5022646;28;20101;-79
2023/08/19 08:00:43;;;;;;;4.07;1.52;;;;;;;26.06;34.50;94091.28;5022412;28;20343;-79
2023/08/19 08:03:08;;;;;;;2.95;1.40;;;;;;;26.09;34.47;94084.22;5023530;28;20033;-79
2023/08/19 08:05:34;;;;;;;4.35;1.60;;;;;;;26.17;33.56;94093.88;5023474;28;20034;-79
2023/08/19 08:08:00;;;;;;;3.35;1.60;;;;;;;26.14;33.73;94087.28;5022346;28;20030;-80
2023/08/19 08:10:25;;;;;;;3.17;1.63;;;;;;;26.16;33.55;94093.13;5023137;28;20061;-79
2023/08/19 08:12:50;;;;;;;4.93;2.17;;;;;;;26.23;34.60;94093.03;5023614;28;20350;-79
2023/08/19 08:15:16;;;;;;;5.60;2.17;;;;;;;26.33;34.36;94105.00;5023336;28;20018;-79
2023/08/19 08:17:42;;;;;;;8.65;1.95;;;;;;;26.35;35.04;94097.19;5023266;28;20256;-80
2023/08/19 08:20:08;;;;;;;4.75;1.98;;;;;;;26.47;34.58;94106.03;5023228;28;20308;-80
2023/08/19 08:22:33;;;;;;;9.40;2.33;;;;;;;26.56;34.59;94103.56;5023069;28;20068;-80
2023/08/19 08:25:00;;;;;;;7.57;1.92;;;;;;;26.64;34.21;94094.13;5023235;28;20064;-80
2023/08/19 08:27:26;;;;;;;4.32;2.00;;;;;;;26.69;33.99;94085.47;5023243;28;20021;-80
2023/08/19 08:29:51;;;;;;;6.65;2.30;;;;;;;26.79;34.28;94089.25;5023372;28;20067;-80
2023/08/19 08:32:17;;;;;;;4.97;2.03;;;;;;;26.85;35.01;94086.81;5022833;28;20018;-80
2023/08/19 08:34:42;;;;;;;7.45;2.00;;;;;;;26.95;35.14;94086.69;5023027;28;20282;-80
2023/08/19 08:37:08;;;;;;;6.35;2.80;;;;;;;27.01;35.52;94087.78;5021798;28;20026;-80
2023/08/19 08:39:33;;;;;;;5.00;2.72;;;;;;;27.14;35.06;94090.69;5022910;28;20049;-80
2023/08/19 08:41:59;;;;;;;11.63;2.50;;;;;;;27.23;34.28;94079.25;5023055;28;20056;-80
2023/08/19 08:44:26;;;;;;;5.00;2.10;;;;;;;27.32;34.89;94070.53;5021857;28;20029;-80
2023/08/19 08:46:53;;;;;;;3.30;1.75;;;;;;;27.41;35.58;94082.47;5022977;28;20045;-80
2023/08/19 08:49:19;;;;;;;13.98;2.33;;;;;;;27.49;34.53;94076.91;5023203;28;20084;-80
2023/08/19 08:51:44;;;;;;;10.45;2.33;;;;;;;27.50;34.72;94092.13;5021790;28;20026;-80
2023/08/19 08:54:10;;;;;;;6.07;2.00;;;;;;;27.60;35.07;94096.69;5022831;28;20319;-80
2023/08/19 08:56:36;;;;;;;8.75;2.20;;;;;;;27.64;34.74;94091.91;5022813;28;20312;-80
2023/08/19 08:59:04;;;;;;;5.18;2.58;;;;;;;27.71;35.21;94093.75;5021448;28;20028;-80
2023/08/19 09:01:31;;;;;;;7.38;2.15;;;;;;;27.78;34.16;94085.41;5022567;28;20030;-80
2023/08/19 09:04:05;;;;;;;7.43;1.90;;;;;;;27.83;33.73;94092.38;5022760;28;20018;-80
2023/08/19 09:06:32;;;;;;;5.72;1.95;;;;;;;27.88;33.31;94083.69;5022798;28;20017;-80
2023/08/19 09:09:04;;;;;;;8.27;2.38;;;;;;;27.95;33.75;94094.53;5022627;28;20033;-80
2023/08/19 09:11:33;;;;;;;;;;;;;;;28.01;32.92;94082.66;5022996;28;20278;-79
2023/08/19 09:14:21;;;;;;;7.97;2.10;;;;;;;28.10;32.48;94084.84;5022362;28;19912;-80
2023/08/19 09:16:47;;;;;;;9.35;2.10;;;;;;;28.18;31.95;94083.50;5021424;28;20319;-79
2023/08/19 09:19:13;;;;;;;4.53;1.98;;;;;;;28.24;31.61;94078.31;5022863;28;20108;-80
2023/08/19 09:21:39;;;;;;;9.00;1.90;;;;;;;28.33;32.04;94080.50;5022657;28;20029;-80
2023/08/19 09:24:05;;;;;;;9.98;1.75;;;;;;;28.44;32.17;94080.31;5022444;28;20304;-80
2023/08/19 09:26:30;;;;;;;3.28;1.52;;;;;;;28.44;31.83;94080.31;5022207;28;20018;-80
2023/08/19 09:28:59;;;;;;;6.15;2.00;;;;;;;28.51;31.66;94078.19;5022598;28;20033;-80
2023/08/19 09:31:25;;;;;;;5.03;2.75;;;;;;;28.50;31.56;94073.91;5022484;28;20378;-80
2023/08/19 09:33:54;;;;;;;6.55;1.90;;;;;;;28.45;31.52;94077.13;5022549;28;20060;-80
2023/08/19 09:36:23;;;;;;;6.82;2.30;;;;;;;28.45;31.01;94074.38;5022446;28;20320;-80
2023/08/19 09:38:53;;;;;;;4.80;2.35;;;;;;;28.37;31.83;94076.50;5022486;28;20338;-80
2023/08/19 09:41:19;;;;;;;4.97;2.50;;;;;;;28.36;31.68;94082.41;5021394;28;20018;-81
2023/08/19 09:43:47;;;;;;;7.57;2.38;;;;;;;28.33;31.68;94080.50;5023140;28;20030;-80
2023/08/19 09:46:14;;;;;;;6.68;2.40;;;;;;;28.40;32.24;94072.16;5026191;28;20271;-80
2023/08/19 09:48:40;;;;;;;12.43;2.17;;;;;;;28.39;32.60;94079.59;5026182;28;20205;-80
2023/08/19 09:51:08;;;;;;;8.23;2.30;;;;;;;28.44;31.52;94074.81;5025976;28;20034;-80
2023/08/19 09:53:36;;;;;;;9.88;1.90;;;;;;;28.38;31.37;94071.78;5025799;28;20053;-79
2023/08/19 09:56:03;;;;;;;5.20;1.63;;;;;;;28.42;31.80;94072.50;5026035;28;20029;-80
2023/08/19 09:58:29;;;;;;;6.65;2.25;;;;;;;28.41;31.24;94074.47;5025765;28;20034;-80
2023/08/19 10:00:55;;;;;;;4.95;1.90;;;;;;;28.36;30.74;94074.19;5024720;28;20412;-80
2023/08/19 10:03:21;;;;;;;11.30;2.10;;;;;;;28.33;31.45;94069.53;5025944;28;20032;-80
2023/08/19 10:05:52;;;;;;;7.97;1.88;;;;;;;28.36;31.41;94068.69;5024499;28;20224;-80
2023/08/19 10:08:25;;;;;;;3.85;1.63;;;;;;;28.38;31.17;94075.31;5024329;28;20021;-80
2023/08/19 10:10:51;;;;;;;4.53;1.70;;;;;;;28.50;30.93;94079.41;5025743;28;20037;-80
2023/08/19 10:13:17;;;;;;;7.10;2.75;;;;;;;28.51;31.16;94080.16;5025492;28;20312;-80
2023/08/19 10:15:46;;;;;;;5.53;2.10;;;;;;;28.61;31.31;94079.94;5023994;28;20028;-81
2023/08/19 10:18:19;;;;;;;6.25;1.75;;;;;;;28.76;31.14;94085.91;5024791;28;20022;-80
2023/08/19 10:20:50;;;;;;;8.30;2.67;;;;;;;28.88;31.08;94084.50;5024973;28;20017;-80
2023/08/19 10:23:17;;;;;;;8.83;1.80;;;;;;;29.09;31.58;94079.72;5025152;28;20100;-79
2023/08/19 10:25:44;;;;;;;7.88;2.08;;;;;;;29.28;30.58;94075.38;5024943;28;20105;-80
2023/08/19 10:28:22;;;;;;;4.10;2.00;;;;;;;29.44;29.81;94069.91;5024679;28;20092;-80
2023/08/19 10:31:15;;;;;;;7.70;1.70;;;;;;;29.67;30.39;94063.44;5024055;28;20025;-80
2023/08/19 10:33:44;;;;;;;7.38;1.70;;;;;;;29.80;30.07;94069.81;5025124;28;20034;-80
2023/08/19 10:36:14;;;;;;;4.53;1.70;;;;;;;29.87;28.77;94059.84;5025029;28;20030;-80
2023/08/19 10:38:43;;;;;;;5.90;1.90;;;;;;;29.99;28.96;94068.13;5025160;28;20073;-80
2023/08/19 10:41:17;;;;;;;8.73;1.65;;;;;;;30.13;28.91;94071.72;5025115;28;20030;-80
2023/08/19 10:43:58;;;;;;;4.70;1.80;;;;;;;30.18;29.01;94069.19;5025089;28;20017;-80
2023/08/19 10:46:32;;;;;;;3.28;1.67;;;;;;;30.27;28.66;94065.06;5025038;28;20013;-80
2023/08/19 10:48:57;;;;;;;4.03;1.48;;;;;;;30.39;29.59;94073.34;5025164;28;20038;-80
2023/08/19 10:51:48;;;;;;;3.95;1.55;;;;;;;30.53;28.65;94063.16;5024943;28;20037;-80
2023/08/19 10:54:23;;;;;;;7.20;1.80;;;;;;;30.65;28.55;94058.88;5024915;28;20042;-81
2023/08/19 10:57:10;;;;;;;5.90;2.00;;;;;;;30.78;28.59;94076.19;5024718;28;20422;-80
2023/08/19 10:59:38;;;;;;;8.52;2.67;;;;;;;30.86;28.10;94072.03;5024617;28;20072;-80
2023/08/19 11:02:04;;;;;;;4.93;2.15;;;;;;;30.85;27.76;94081.47;5024674;28;20022;-80
2023/08/19 11:04:31;;;;;;;6.00;1.75;;;;;;;30.98;28.44;94065.00;5024484;28;20075;-80
2023/08/19 11:06:57;;;;;;;7.07;1.95;;;;;;;31.12;28.19;94069.28;5024707;28;20034;-80
2023/08/19 11:09:24;;;;;;;9.18;2.38;;;;;;;31.21;28.30;94076.91;5024676;28;20030;-80
2023/08/19 11:11:50;;;;;;;3.38;2.17;;;;;;;31.28;28.32;94073.91;5024497;28;20037;-80
2023/08/19 11:14:17;;;;;;;5.43;1.77;;;;;;;31.35;28.10;94074.47;5023271;28;20052;-81
2023/08/19 11:16:49;;;;;;;7.68;2.10;;;;;;;31.43;28.65;94063.19;5024195;28;20029;-81
2023/08/19 11:19:14;;;;;;;;;;;;;;;31.47;27.57;94070.19;5024983;28;20261;-80
2023/08/19 11:21:42;;;;;;;13.02;1.90;;;;;;;31.46;27.66;94070.63;5024274;28;19912;-81
2023/08/19 11:24:08;;;;;;;4.38;1.48;;;;;;;31.40;27.26;94079.41;5023039;28;20022;-81
2023/08/19 11:26:35;;;;;;;4.22;2.33;;;;;;;31.37;27.38;94069.28;5024119;28;20092;-81
2023/08/19 11:29:04;;;;;;;3.10;1.80;;;;;;;31.26;27.10;94070.81;5024212;28;20036;-80
2023/08/19 11:31:29;;;;;;;5.50;1.65;;;;;;;31.09;28.11;94068.19;5022984;28;20109;-81